Time;durP1;ratioP1;P1;durP2;ratioP2;P2;SDS_P1;SDS_P2;PMS_P1;PMS_P2;Temp;Humidity;BMP_temperature;BMP_pressure;BME280_temperature;BME280_humidity;BME280_pressure;Samples;Min_cycle;Max_cycle;Signal;HPM_P1;HPM_P2
2021/08/15 00:00:07;;;;;;;9.33;5.67;;;;;;;27.30;46.80;101858.91;1598463;87;21133;-50
2021/08/15 00:02:36;;;;;;;8.98;6.33;;;;;;;27.29;46.62;101851.84;1586115;88;21106;-48
2021/08/15 00:05:03;;;;;;;6.25;5.65;;;;;;;27.30;46.38;101854.42;1593028;88;21053;-48
2021/08/15 00:07:30;;;;;;;7.75;6.33;;;;;;;27.31;47.19;101852.11;1573295;90;21126;-47
2021/08/15 00:09:57;;;;;;;7.92;6.75;;;;;;;27.31;47.91;101858.78;1582915;87;21117;-49
2021/08/15 00:12:24;;;;;;;7.78;6.40;;;;;;;27.32;48.37;101856.50;1574085;90;21041;-49
2021/08/15 00:14:51;;;;;;;8.93;6.67;;;;;;;27.33;48.91;101854.18;1579689;90;21137;-52
2021/08/15 00:17:18;;;;;;;8.00;7.00;;;;;;;27.33;48.88;101854.18;1572669;89;21106;-49
2021/08/15 00:19:46;;;;;;;10.15;7.97;;;;;;;27.32;48.72;101851.16;1588013;88;21650;-52
2021/08/15 00:22:15;;;;;;;9.90;7.62;;;;;;;27.31;48.71;101850.77;1594703;88;21062;-47
2021/08/15 00:24:42;;;;;;;10.18;7.80;;;;;;;27.31;48.26;101849.91;1593633;88;21617;-51
2021/08/15 00:27:09;;;;;;;10.25;7.10;;;;;;;27.32;48.10;101849.82;1602421;87;21081;-52
2021/08/15 00:29:35;;;;;;;8.75;6.92;;;;;;;27.32;47.89;101848.48;1630493;85;21167;-50
2021/08/15 00:32:06;;;;;;;10.10;7.40;;;;;;;27.33;48.13;101854.18;1723955;82;21466;-49
2021/08/15 00:34:34;;;;;;;9.50;7.60;;;;;;;27.33;48.77;101851.51;1723691;82;20993;-47
2021/08/15 00:37:03;;;;;;;12.25;8.15;;;;;;;27.31;49.36;101848.09;1724277;82;21498;-50
2021/08/15 00:39:31;;;;;;;12.45;6.83;;;;;;;27.30;49.72;101851.75;1720423;82;21092;-48
2021/08/15 00:41:58;;;;;;;8.98;6.37;;;;;;;27.29;48.75;101852.70;1726241;82;21837;-48
2021/08/15 00:44:24;;;;;;;8.98;7.10;;;;;;;27.25;48.25;101844.55;1719067;82;20978;-48
2021/08/15 00:46:52;;;;;;;10.78;6.72;;;;;;;27.24;47.55;101846.83;1719545;82;21050;-47
2021/08/15 00:49:19;;;;;;;8.93;7.97;;;;;;;27.23;47.35;101849.15;1719669;82;21629;-49
2021/08/15 00:51:45;;;;;;;14.25;8.00;;;;;;;27.21;47.91;101846.22;1723399;82;21471;-47
2021/08/15 00:54:12;;;;;;;10.98;8.95;;;;;;;27.21;48.23;101844.41;1720284;82;21094;-50
2021/08/15 00:56:39;;;;;;;13.40;9.83;;;;;;;27.22;48.71;101844.75;1723472;82;21010;-51
2021/08/15 00:59:08;;;;;;;11.53;8.58;;;;;;;27.21;49.42;101849.75;1699289;84;21058;-48
2021/08/15 01:01:36;;;;;;;11.48;8.90;;;;;;;27.20;49.81;101851.20;1726148;82;21109;-51
2021/08/15 01:04:04;;;;;;;10.65;9.10;;;;;;;27.18;50.15;101851.30;1723197;82;21049;-50
2021/08/15 01:06:34;;;;;;;10.03;7.65;;;;;;;27.16;50.23;101843.87;1720215;82;21502;-47
2021/08/15 01:09:03;;;;;;;9.65;7.33;;;;;;;27.13;50.10;101843.27;1720771;82;20999;-48
2021/08/15 01:11:31;;;;;;;10.35;7.80;;;;;;;27.11;50.52;101840.70;1723093;82;22778;-48
2021/08/15 01:14:08;;;;;;;8.03;7.22;;;;;;;27.09;50.56;101843.98;1720233;82;21558;-48
2021/08/15 01:16:37;;;;;;;13.35;7.47;;;;;;;27.06;50.54;101838.84;1721411;82;21030;-47
2021/08/15 01:19:06;;;;;;;9.43;7.05;;;;;;;27.06;50.60;101835.34;1719118;82;21004;-48
2021/08/15 01:21:34;;;;;;;11.95;7.50;;;;;;;27.05;50.87;101835.82;1719699;82;21052;-48
2021/08/15 01:24:04;;;;;;;9.88;8.03;;;;;;;27.03;51.07;101832.41;1725926;82;21074;-50
2021/08/15 01:26:31;;;;;;;11.93;7.60;;;;;;;27.04;51.05;101831.42;1725803;82;21014;-45
2021/08/15 01:28:57;;;;;;;12.28;7.22;;;;;;;27.04;50.97;101831.42;1720797;82;21525;-49
2021/08/15 01:31:25;;;;;;;10.32;7.80;;;;;;;27.04;50.86;101831.42;1723987;82;21074;-46
2021/08/15 01:33:52;;;;;;;8.63;7.37;;;;;;;27.05;50.60;101829.61;1702900;82;21006;-47
2021/08/15 01:36:20;;;;;;;7.58;6.72;;;;;;;27.04;50.32;101823.41;1729215;82;21003;-48
2021/08/15 01:38:50;;;;;;;9.68;7.08;;;;;;;27.04;49.93;101816.73;1716261;82;21171;-49
2021/08/15 01:41:17;;;;;;;8.88;7.05;;;;;;;27.05;49.51;101822.46;1720008;82;21058;-48
2021/08/15 01:43:59;;;;;;;9.20;7.28;;;;;;;27.05;49.14;101819.79;1721144;82;21070;-49
2021/08/15 01:46:28;;;;;;;12.23;7.70;;;;;;;27.04;49.18;101826.08;1642912;86;21132;-47
2021/08/15 01:48:57;;;;;;;10.60;8.13;;;;;;;27.03;49.04;101824.39;1634757;86;21049;-46
2021/08/15 01:51:23;;;;;;;10.38;7.65;;;;;;;27.02;49.05;101826.68;1608311;87;21031;-48
2021/08/15 01:53:52;;;;;;;9.50;7.67;;;;;;;27.00;48.87;101825.08;1624967;87;21050;-50
2021/08/15 01:56:20;;;;;;;10.82;7.42;;;;;;;26.96;48.54;101824.46;1627999;87;21041;-48
2021/08/15 01:58:47;;;;;;;13.45;8.33;;;;;;;26.94;48.45;101823.72;1599198;88;21029;-49
2021/08/15 02:01:19;;;;;;;10.25;7.92;;;;;;;26.91;48.15;101822.63;1604009;88;21130;-47
2021/08/15 02:03:46;;;;;;;10.88;7.03;;;;;;;26.89;48.18;101819.22;1545259;91;21092;-48
2021/08/15 02:06:13;;;;;;;9.00;7.20;;;;;;;26.86;48.32;101820.77;1563418;90;21561;-48
2021/08/15 02:08:40;;;;;;;10.15;7.22;;;;;;;26.85;48.37;101821.73;1570308;89;21223;-51
2021/08/15 02:11:07;;;;;;;8.50;7.08;;;;;;;26.86;48.37;101820.77;1557790;90;21101;-50
2021/08/15 02:13:34;;;;;;;12.60;7.97;;;;;;;26.85;48.28;101820.88;1555328;91;21169;-46
2021/08/15 02:16:04;;;;;;;9.88;7.70;;;;;;;26.85;48.57;101816.40;1558129;91;21613;-50
2021/08/15 02:18:32;;;;;;;14.63;8.75;;;;;;;26.83;48.92;101818.30;1555991;89;21671;-50
2021/08/15 02:20:59;;;;;;;10.10;8.08;;;;;;;26.82;49.17;101819.28;1561019;91;21130;-50
2021/08/15 02:23:26;;;;;;;12.95;8.75;;;;;;;26.80;49.38;101811.86;1574649;89;21083;-49
2021/08/15 02:25:53;;;;;;;11.20;7.97;;;;;;;26.77;49.31;101814.73;1584697;88;21089;-49
2021/08/15 02:28:20;;;;;;;11.48;9.03;;;;;;;26.75;49.25;101815.33;1559299;90;21101;-47
2021/08/15 02:30:47;;;;;;;11.33;8.15;;;;;;;26.73;49.35;101821.27;1579276;89;21142;-49
2021/08/15 02:33:14;;;;;;;11.12;8.30;;;;;;;26.70;49.06;101826.81;1548706;90;21156;-47
2021/08/15 02:35:42;;;;;;;15.13;9.18;;;;;;;26.66;49.05;101822.66;1547148;91;21806;-50
2021/08/15 02:38:09;;;;;;;14.87;9.28;;;;;;;26.63;49.02;101822.86;1560258;91;21111;-48
2021/08/15 02:40:36;;;;;;;14.00;9.88;;;;;;;26.60;49.40;101820.44;1553302;90;21611;-51
2021/08/15 02:43:04;;;;;;;11.18;9.75;;;;;;;26.58;49.98;101818.36;1580680;88;21082;-47
2021/08/15 02:45:31;;;;;;;14.90;9.30;;;;;;;26.54;50.38;101820.37;1592885;89;21565;-51
2021/08/15 02:47:58;;;;;;;14.15;9.75;;;;;;;26.50;50.63;101817.55;1592458;89;21078;-49
2021/08/15 02:50:25;;;;;;;11.35;9.03;;;;;;;26.48;50.76;101817.31;1598323;88;21045;-50
2021/08/15 02:52:52;;;;;;;13.95;9.48;;;;;;;26.46;50.69;101817.91;1609903;85;21591;-47
2021/08/15 02:55:21;;;;;;;13.03;9.33;;;;;;;26.45;50.73;101816.18;1664974;85;21083;-47
2021/08/15 02:57:48;;;;;;;13.25;10.25;;;;;;;26.46;51.02;101817.91;1677313;84;21123;-49
2021/08/15 03:00:17;;;;;;;14.38;9.58;;;;;;;26.46;51.23;101823.23;1664863;85;21056;-48
2021/08/15 03:02:44;;;;;;;14.43;9.65;;;;;;;26.47;51.00;101827.13;1665188;85;21554;-49
2021/08/15 03:05:12;;;;;;;11.85;9.18;;;;;;;26.46;49.96;101823.23;1666054;85;21061;-51
2021/08/15 03:07:39;;;;;;;11.85;9.20;;;;;;;26.46;49.00;101827.24;1666383;85;21008;-49
2021/08/15 03:10:08;;;;;;;10.88;9.63;;;;;;;26.44;49.06;101825.17;1664512;85;21037;-52
2021/08/15 03:12:36;;;;;;;12.73;9.35;;;;;;;26.44;48.93;101827.84;1663354;85;21779;-51
2021/08/15 03:15:06;;;;;;;14.03;11.18;;;;;;;26.44;48.89;101830.50;1653051;85;21060;-47
2021/08/15 03:17:33;;;;;;;11.95;10.50;;;;;;;26.41;49.23;101830.70;1663976;85;21103;-48
2021/08/15 03:20:01;;;;;;;12.33;10.10;;;;;;;26.39;49.50;101828.62;1666627;85;21029;-50
2021/08/15 03:22:28;;;;;;;13.18;9.93;;;;;;;26.37;49.40;101827.41;1666452;85;21048;-49
2021/08/15 03:24:54;;;;;;;12.80;9.50;;;;;;;26.37;49.59;101835.89;1654469;85;21040;-46
2021/08/15 03:27:22;;;;;;;16.10;9.58;;;;;;;26.38;49.96;101833.58;1665062;85;21045;-48
2021/08/15 03:29:50;;;;;;;16.60;11.53;;;;;;;26.39;50.24;101839.30;1665955;85;21096;-48
2021/08/15 03:32:16;;;;;;;14.23;11.12;;;;;;;26.40;51.11;101839.66;1665730;85;21111;-47
2021/08/15 03:34:43;;;;;;;15.63;11.50;;;;;;;26.40;51.75;101843.66;1663581;85;21568;-49
2021/08/15 03:37:10;;;;;;;19.50;11.70;;;;;;;26.40;52.01;101840.99;1668449;85;21064;-49
2021/08/15 03:39:37;;;;;;;16.55;11.85;;;;;;;26.42;52.22;101847.11;1661040;85;21509;-49
2021/08/15 03:42:04;;;;;;;14.75;10.75;;;;;;;26.42;52.47;101842.59;1663402;85;21048;-48
2021/08/15 03:44:32;;;;;;;13.95;11.35;;;;;;;26.45;52.30;101845.54;1669446;85;20993;-48
2021/08/15 03:46:59;;;;;;;15.95;10.85;;;;;;;26.47;52.49;101838.28;1662870;85;21056;-51
2021/08/15 03:49:27;;;;;;;15.03;11.78;;;;;;;26.49;52.90;101836.35;1663099;85;21092;-47
2021/08/15 03:51:56;;;;;;;13.00;9.90;;;;;;;26.49;52.91;101836.35;1655268;85;21067;-47
2021/08/15 03:54:22;;;;;;;17.85;10.32;;;;;;;26.51;52.73;101837.09;1665990;85;21016;-51
2021/08/15 03:56:49;;;;;;;13.60;10.00;;;;;;;26.53;52.58;101844.52;1663273;85;21044;-48
2021/08/15 03:59:16;;;;;;;14.63;9.53;;;;;;;26.55;52.50;101847.92;1663114;85;21028;-47
2021/08/15 04:01:45;;;;;;;10.70;8.98;;;;;;;26.58;52.50;101846.39;1664817;84;21072;-47
2021/08/15 04:04:12;;;;;;;13.78;10.08;;;;;;;26.61;52.41;101838.14;1664093;85;21004;-51
2021/08/15 04:06:38;;;;;;;15.98;11.68;;;;;;;26.64;52.33;101845.95;1663697;85;21015;-50
2021/08/15 04:09:05;;;;;;;141.53;14.25;;;;;;;26.66;52.57;101848.50;1659759;85;21072;-47
2021/08/15 04:11:33;;;;;;;13.35;8.75;;;;;;;26.69;52.79;101843.78;1665774;85;21056;-49
2021/08/15 04:14:00;;;;;;;12.03;9.40;;;;;;;26.71;52.53;101844.52;1664335;85;21127;-48
2021/08/15 04:16:27;;;;;;;20.43;9.00;;;;;;;26.72;52.37;101852.95;1663617;85;21128;-47
2021/08/15 04:18:56;;;;;;;14.60;7.90;;;;;;;26.74;52.11;101848.36;1668065;85;21076;-50
2021/08/15 04:21:23;;;;;;;218.40;25.37;;;;;;;26.78;51.79;101845.84;1665588;85;21073;-49
2021/08/15 04:23:50;;;;;;;35.65;10.35;;;;;;;26.79;51.47;101848.03;1665950;85;21042;-46
2021/08/15 04:26:18;;;;;;;12.30;8.20;;;;;;;26.82;51.11;101840.64;1668482;84;21052;-49
2021/08/15 04:28:46;;;;;;;10.95;7.22;;;;;;;26.84;50.91;101844.05;1663360;85;21075;-52
2021/08/15 04:31:14;;;;;;;11.48;8.63;;;;;;;26.85;50.65;101844.44;1663520;85;21548;-47
2021/08/15 04:33:41;;;;;;;13.68;8.25;;;;;;;26.87;50.67;101848.33;1662773;85;21025;-47
2021/08/15 04:36:07;;;;;;;10.45;7.55;;;;;;;26.90;50.72;101855.62;1663495;85;21073;-49
2021/08/15 04:38:34;;;;;;;11.28;8.10;;;;;;;26.91;50.63;101854.67;1663764;85;21096;-47
2021/08/15 04:41:02;;;;;;;15.65;11.03;;;;;;;26.93;50.63;101858.09;1665780;85;21552;-52
2021/08/15 04:43:32;;;;;;;13.90;10.63;;;;;;;26.95;51.23;101860.64;1665848;85;21079;-49
2021/08/15 04:46:00;;;;;;;11.90;10.05;;;;;;;26.97;51.61;101852.89;1662329;85;21024;-48
2021/08/15 04:48:27;;;;;;;10.93;9.28;;;;;;;27.00;51.55;101853.13;1665816;85;21082;-48
2021/08/15 04:50:56;;;;;;;10.63;8.33;;;;;;;27.04;51.25;101852.80;1653990;85;21116;-52
2021/08/15 04:53:22;;;;;;;9.83;8.35;;;;;;;27.08;50.71;101858.80;1664273;85;21060;-50
2021/08/15 04:55:49;;;;;;;11.05;8.25;;;;;;;27.09;50.25;101858.67;1665991;85;21108;-49
2021/08/15 04:58:17;;;;;;;10.50;8.00;;;;;;;27.12;49.98;101859.77;1664558;85;21068;-49
2021/08/15 05:00:44;;;;;;;10.85;7.65;;;;;;;27.08;50.16;101851.61;1667386;85;21599;-50
2021/08/15 05:03:16;;;;;;;8.03;7.12;;;;;;;27.08;49.17;101859.63;1665996;85;21056;-50
2021/08/15 05:05:44;;;;;;;8.83;7.62;;;;;;;27.08;48.82;101854.28;1666553;85;21036;-47
2021/08/15 05:08:10;;;;;;;9.50;7.50;;;;;;;27.08;48.56;101862.30;1666140;85;21508;-47
2021/08/15 05:10:37;;;;;;;9.03;6.83;;;;;;;27.06;48.49;101853.54;1664992;85;21064;-49
2021/08/15 05:13:06;;;;;;;9.88;7.75;;;;;;;27.08;48.36;101858.80;1663187;85;21041;-47
2021/08/15 05:15:34;;;;;;;9.33;7.33;;;;;;;27.06;48.13;101861.55;1662711;85;21032;-47
2021/08/15 05:18:02;;;;;;;8.60;7.17;;;;;;;27.06;48.41;101857.55;1663586;85;21143;-50
2021/08/15 05:20:30;;;;;;;21.00;8.88;;;;;;;27.06;48.65;101861.55;1663333;85;21517;-47
2021/08/15 05:22:59;;;;;;;9.45;7.30;;;;;;;27.05;48.77;101865.20;1663281;85;21552;-47
2021/08/15 05:25:26;;;;;;;10.13;8.48;;;;;;;27.04;48.55;101866.16;1659760;85;21035;-47
2021/08/15 05:27:54;;;;;;;16.17;8.38;;;;;;;27.06;48.25;101868.23;1672795;85;21079;-47
2021/08/15 05:30:20;;;;;;;10.60;8.58;;;;;;;27.08;48.09;101858.28;1664927;85;21061;-49
2021/08/15 05:32:48;;;;;;;10.58;7.33;;;;;;;27.11;48.29;101868.77;1663565;85;21571;-49
2021/08/15 05:35:15;;;;;;;11.53;7.65;;;;;;;27.13;48.13;101862.83;1668021;85;21131;-51
2021/08/15 05:37:42;;;;;;;10.23;7.47;;;;;;;27.16;48.18;101865.25;1661255;85;21037;-50
2021/08/15 05:40:09;;;;;;;10.78;7.10;;;;;;;27.17;47.28;101862.97;1667927;85;21001;-49
2021/08/15 05:42:36;;;;;;;9.10;7.03;;;;;;;27.19;47.17;101867.72;1664691;85;21036;-51
2021/08/15 05:45:04;;;;;;;9.90;7.62;;;;;;;27.22;47.22;101863.46;1650760;85;21080;-48
2021/08/15 05:47:31;;;;;;;11.90;7.50;;;;;;;27.23;47.49;101854.50;1669576;84;21548;-52
2021/08/15 05:49:58;;;;;;;14.93;9.60;;;;;;;27.26;47.00;101855.62;1654063;85;21052;-49
2021/08/15 05:52:26;;;;;;;12.33;9.75;;;;;;;27.28;46.80;101856.84;1664677;85;21104;-47
2021/08/15 05:54:54;;;;;;;8.75;7.35;;;;;;;27.30;47.19;101851.75;1666433;85;21060;-48
2021/08/15 05:57:21;;;;;;;12.07;8.10;;;;;;;27.33;47.40;101856.85;1674064;85;21122;-50
2021/08/15 05:59:47;;;;;;;10.13;6.95;;;;;;;27.36;46.81;101853.14;1666635;85;21052;-49
2021/08/15 06:02:14;;;;;;;11.40;7.50;;;;;;;27.38;46.77;101856.08;1663306;85;21056;-48
2021/08/15 06:04:40;;;;;;;8.05;7.22;;;;;;;27.43;47.15;101854.88;1663315;85;21075;-47
2021/08/15 06:07:08;;;;;;;10.30;7.85;;;;;;;27.48;47.30;101852.70;1663101;85;21102;-51
2021/08/15 06:09:35;;;;;;;10.20;7.70;;;;;;;27.55;47.31;101849.94;1666166;84;21049;-47
2021/08/15 06:12:05;;;;;;;9.63;8.63;;;;;;;27.64;46.87;101858.11;1665925;85;21099;-47
2021/08/15 06:14:34;;;;;;;12.03;10.58;;;;;;;27.75;46.77;101857.30;1663852;85;21532;-50
2021/08/15 06:17:03;;;;;;;9.83;8.83;;;;;;;27.83;46.28;101854.89;1662199;85;21196;-50
2021/08/15 06:19:32;;;;;;;10.95;9.80;;;;;;;27.90;45.42;101858.81;1663252;85;21064;-48
2021/08/15 06:22:00;;;;;;;27.45;9.58;;;;;;;27.96;45.66;101861.05;1659646;85;21001;-50
2021/08/15 06:24:27;;;;;;;9.58;7.10;;;;;;;28.01;44.80;101858.85;1666015;85;20989;-48
2021/08/15 06:26:55;;;;;;;10.00;6.40;;;;;;;28.10;44.26;101860.83;1665917;85;21079;-48
2021/08/15 06:29:22;;;;;;;10.18;6.42;;;;;;;28.20;43.49;101855.12;1663794;85;21060;-50
2021/08/15 06:31:49;;;;;;;11.00;7.15;;;;;;;28.28;42.98;101859.39;1664671;85;21072;-51
2021/08/15 06:34:16;;;;;;;7.33;6.47;;;;;;;28.34;42.72;101860.24;1665442;85;21599;-50
2021/08/15 06:36:42;;;;;;;7.62;6.50;;;;;;;28.39;43.11;101865.23;1665828;85;21223;-49
2021/08/15 06:39:09;;;;;;;8.05;6.45;;;;;;;28.43;42.91;101864.02;1665278;85;21061;-50
2021/08/15 06:41:36;;;;;;;7.53;5.83;;;;;;;28.47;42.59;101857.45;1663291;85;21508;-49
2021/08/15 06:44:05;;;;;;;10.88;7.10;;;;;;;28.52;42.98;101863.31;1663224;85;21048;-49
2021/08/15 06:46:32;;;;;;;8.73;6.87;;;;;;;28.57;42.63;101856.64;1659601;85;21025;-49
2021/08/15 06:48:59;;;;;;;12.40;7.17;;;;;;;28.61;42.79;101860.77;1679462;84;21431;-49
2021/08/15 06:51:26;;;;;;;7.50;6.53;;;;;;;28.64;42.58;101861.88;1665227;84;21045;-50
2021/08/15 06:53:52;;;;;;;7.12;6.42;;;;;;;28.67;42.51;101854.92;1666050;85;21072;-49
2021/08/15 06:56:19;;;;;;;7.90;6.40;;;;;;;28.68;42.36;101852.62;1665831;85;21056;-49
2021/08/15 06:58:46;;;;;;;14.15;8.00;;;;;;;28.68;42.56;101852.62;1665203;85;21473;-52
2021/08/15 07:01:13;;;;;;;10.28;6.53;;;;;;;28.68;42.73;101855.30;1654972;85;21492;-49
2021/08/15 07:03:40;;;;;;;8.73;6.30;;;;;;;28.67;42.58;101850.91;1665049;85;21119;-49
2021/08/15 07:06:07;;;;;;;8.90;6.67;;;;;;;28.67;42.61;101850.91;1662152;85;21064;-49
2021/08/15 07:08:34;;;;;;;10.03;7.17;;;;;;;28.70;42.99;101849.34;1661543;85;21076;-48
2021/08/15 07:11:01;;;;;;;8.53;6.60;;;;;;;28.70;43.05;101850.67;1671061;85;21104;-49
2021/08/15 07:13:27;;;;;;;11.38;7.28;;;;;;;28.72;43.08;101850.54;1666090;85;20973;-49
2021/08/15 07:15:56;;;;;;;8.73;6.67;;;;;;;28.74;42.94;101848.11;1665382;85;21560;-49
2021/08/15 07:18:23;;;;;;;7.60;6.20;;;;;;;28.75;43.01;101844.92;1663101;85;21603;-49
2021/08/15 07:20:54;;;;;;;10.30;6.42;;;;;;;28.76;43.06;101850.66;1665262;85;21056;-48
2021/08/15 07:23:18;;;;;;;9.83;6.55;;;;;;;28.77;43.03;101841.16;1673493;84;21061;-49
2021/08/15 07:25:45;;;;;;;7.65;6.17;;;;;;;28.79;42.97;101845.90;1661684;85;21204;-49
2021/08/15 07:28:12;;;;;;;13.98;7.60;;;;;;;28.84;43.00;101843.71;1664880;85;21607;-49
2021/08/15 07:30:38;;;;;;;10.85;7.00;;;;;;;28.88;42.80;101838.47;1666062;84;21044;-50
2021/08/15 07:33:06;;;;;;;11.22;6.95;;;;;;;28.92;43.21;101838.58;1664762;85;21068;-49
2021/08/15 07:35:35;;;;;;;8.95;6.60;;;;;;;28.98;43.12;101836.73;1666203;85;21527;-50
2021/08/15 07:38:02;;;;;;;8.85;6.10;;;;;;;29.03;43.10;101832.34;1666250;85;21472;-48
2021/08/15 07:40:31;;;;;;;7.83;6.42;;;;;;;29.04;43.18;101823.83;1664397;85;21051;-49
2021/08/15 07:42:58;;;;;;;11.65;6.33;;;;;;;29.06;43.00;101832.59;1664192;85;21112;-49
2021/08/15 07:45:28;;;;;;;10.85;5.92;;;;;;;29.08;43.25;101834.66;1665087;85;21064;-49
2021/08/15 07:47:55;;;;;;;7.97;6.45;;;;;;;29.08;43.35;101836.82;1656218;85;21073;-49
2021/08/15 07:50:22;;;;;;;13.05;6.87;;;;;;;29.11;42.92;101839.75;1663385;85;21040;-49
2021/08/15 07:52:49;;;;;;;8.08;5.58;;;;;;;29.13;42.64;101837.79;1664442;85;21088;-47
2021/08/15 07:55:15;;;;;;;8.85;5.37;;;;;;;29.17;42.45;101837.45;1664348;85;21095;-48
2021/08/15 07:57:42;;;;;;;11.95;7.08;;;;;;;29.21;42.79;101836.70;1665194;85;21107;-46
2021/08/15 08:00:10;;;;;;;11.78;6.60;;;;;;;29.27;41.90;101839.73;1666016;85;20969;-47
2021/08/15 08:02:37;;;;;;;7.12;5.60;;;;;;;29.32;40.48;101831.31;1665965;85;21001;-49
2021/08/15 08:05:05;;;;;;;7.37;5.85;;;;;;;29.37;39.63;101837.13;1664323;85;21450;-46
2021/08/15 08:07:32;;;;;;;7.70;5.87;;;;;;;29.40;38.67;101834.20;1664284;85;21553;-50
2021/08/15 08:09:58;;;;;;;9.18;6.00;;;;;;;29.44;38.77;101834.30;1662918;85;21084;-48
2021/08/15 08:12:25;;;;;;;14.60;5.80;;;;;;;29.45;39.37;101834.67;1662800;85;21037;-47
2021/08/15 08:14:51;;;;;;;11.00;5.90;;;;;;;29.49;38.77;101828.91;1658883;85;21048;-48
2021/08/15 08:17:18;;;;;;;6.72;5.22;;;;;;;29.54;38.06;101831.20;1662019;85;21045;-49
2021/08/15 08:19:45;;;;;;;5.95;5.40;;;;;;;29.58;37.99;101821.92;1666227;85;21044;-49
2021/08/15 08:22:11;;;;;;;8.50;5.05;;;;;;;29.63;37.53;101825.08;1662821;85;21028;-48
2021/08/15 08:24:38;;;;;;;6.45;4.83;;;;;;;29.67;36.64;101830.54;1663023;85;21024;-47
2021/08/15 08:27:05;;;;;;;8.75;4.90;;;;;;;29.71;37.16;101827.47;1665444;85;21021;-48
2021/08/15 08:29:32;;;;;;;8.63;5.22;;;;;;;29.76;37.68;101824.92;1665925;85;21080;-49
2021/08/15 08:31:59;;;;;;;5.50;4.92;;;;;;;29.80;38.12;101819.14;1665013;85;21076;-45
2021/08/15 08:34:26;;;;;;;8.35;5.12;;;;;;;29.85;37.80;101824.97;1663573;85;21048;-46
2021/08/15 08:36:53;;;;;;;7.85;5.15;;;;;;;29.88;37.48;101820.70;1667626;84;21067;-51
2021/08/15 08:39:20;;;;;;;5.15;4.62;;;;;;;29.91;35.83;101823.10;1666009;85;21091;-46
2021/08/15 08:41:47;;;;;;;9.60;4.05;;;;;;;29.93;36.17;101817.11;1665687;85;21583;-46
2021/08/15 08:44:16;;;;;;;6.37;4.70;;;;;;;29.95;35.08;101809.78;1664614;85;21045;-50
2021/08/15 08:46:43;;;;;;;5.35;4.20;;;;;;;29.96;34.29;101812.84;1675917;84;21523;-48
2021/08/15 08:49:13;;;;;;;5.42;4.40;;;;;;;29.98;34.71;101810.02;1681466;84;21064;-51
2021/08/15 08:51:40;;;;;;;12.00;5.08;;;;;;;29.99;33.98;101808.53;1663666;85;21553;-47
2021/08/15 08:54:07;;;;;;;5.15;4.45;;;;;;;30.01;33.50;101805.70;1671771;84;21024;-47
2021/08/15 08:56:36;;;;;;;5.50;5.00;;;;;;;30.01;33.44;101805.22;1673000;84;21519;-46
2021/08/15 08:59:03;;;;;;;8.48;5.33;;;;;;;30.04;34.10;101806.80;1669273;85;21049;-48
2021/08/15 09:01:30;;;;;;;5.97;5.33;;;;;;;30.05;34.32;101802.63;1687981;84;21093;-49
2021/08/15 09:03:57;;;;;;;7.40;4.58;;;;;;;30.08;34.39;101798.34;1680715;83;21536;-51
2021/08/15 09:06:26;;;;;;;6.72;5.67;;;;;;;30.12;34.73;101802.95;1676120;84;21031;-49
2021/08/15 09:08:52;;;;;;;6.30;4.87;;;;;;;30.15;34.65;101804.86;1683371;82;21515;-50
2021/08/15 09:11:23;;;;;;;4.85;4.35;;;;;;;30.19;34.40;101803.61;1626251;85;21094;-50
2021/08/15 09:14:07;;;;;;;6.15;5.28;;;;;;;30.22;34.15;101800.67;1660629;84;21143;-49
2021/08/15 09:17:01;;;;;;;5.00;4.30;;;;;;;30.25;34.24;101796.36;1639826;85;21121;-50
2021/08/15 09:19:38;;;;;;;5.85;4.35;;;;;;;30.28;33.98;101796.11;1668149;85;21086;-50
2021/08/15 09:22:27;;;;;;;4.97;4.42;;;;;;;30.31;34.42;101795.88;1656363;85;21007;-49
2021/08/15 09:27:55;;;;;;;6.58;4.20;;;;;;;30.35;33.09;101783.88;1545738;91;21068;-49
2021/08/15 09:30:31;;;;;;;4.00;3.40;;;;;;;30.37;32.05;101789.97;1471913;96;21075;-48
2021/08/15 09:33:09;;;;;;;4.67;4.08;;;;;;;30.38;31.78;101786.28;1478305;96;21057;-49
2021/08/15 09:35:39;;;;;;;5.10;3.42;;;;;;;30.41;31.76;101786.02;1397662;102;21692;-49
2021/08/15 09:38:15;;;;;;;4.53;3.80;;;;;;;30.44;31.69;101783.05;1398626;102;21124;-48
2021/08/15 09:40:46;;;;;;;4.85;3.47;;;;;;;30.49;31.81;101785.33;1399825;102;21317;-49
2021/08/15 09:43:22;;;;;;;5.42;3.92;;;;;;;30.51;31.57;101782.87;1396805;102;21093;-48
2021/08/15 09:45:52;;;;;;;6.05;4.00;;;;;;;30.56;32.07;101784.30;1394271;102;21156;-49
2021/08/15 09:51:22;;;;;;;5.67;3.77;;;;;;;30.66;32.56;101783.83;1351217;104;21692;-48
2021/08/15 09:53:58;;;;;;;4.30;3.90;;;;;;;30.73;31.69;101776.92;1329377;108;21652;-49
2021/08/15 09:56:39;;;;;;;6.10;4.15;;;;;;;30.81;31.83;101774.39;1312459;109;21165;-50
2021/08/15 09:59:21;;;;;;;4.37;3.47;;;;;;;30.88;31.25;101768.83;1330992;108;21118;-48
2021/08/15 10:01:55;;;;;;;6.15;4.25;;;;;;;30.94;31.75;101764.23;1312274;108;21131;-51
2021/08/15 10:04:23;;;;;;;3.95;3.42;;;;;;;31.02;31.54;101767.06;1330744;108;21203;-50
2021/08/15 10:06:54;;;;;;;4.08;3.67;;;;;;;31.09;30.21;101769.08;1312837;109;21110;-50
2021/08/15 10:09:21;;;;;;;4.33;3.70;;;;;;;31.13;30.30;101762.42;1330402;108;21560;-47
2021/08/15 10:11:48;;;;;;;7.58;3.87;;;;;;;31.16;30.45;101756.75;1287991;109;21285;-49
2021/08/15 10:14:15;;;;;;;6.75;3.50;;;;;;;31.19;30.39;101752.44;1320778;107;21294;-49
2021/08/15 10:17:01;;;;;;;4.72;3.30;;;;;;;31.23;30.94;101755.69;1320738;107;21277;-50
2021/08/15 10:19:57;;;;;;;5.25;3.58;;;;;;;31.27;30.86;101753.06;1331846;108;21244;-49
2021/08/15 10:22:30;;;;;;;4.12;3.35;;;;;;;31.33;30.89;101756.04;1367193;103;21176;-53
2021/08/15 10:25:03;;;;;;;10.13;4.30;;;;;;;31.38;31.10;101744.86;1400546;100;21645;-50
2021/08/15 10:27:45;;;;;;;6.28;4.08;;;;;;;31.43;31.17;101749.32;1370802;103;21622;-47
2021/08/15 10:30:32;;;;;;;5.47;4.95;;;;;;;31.49;31.65;101743.89;1419513;99;21114;-49
2021/08/15 10:33:11;;;;;;;6.35;4.12;;;;;;;31.55;31.25;101742.78;1438491;97;21130;-47
2021/08/15 10:35:39;;;;;;;4.00;3.17;;;;;;;31.59;30.38;101736.64;1454047;96;21112;-50
2021/08/15 10:38:09;;;;;;;3.87;3.20;;;;;;;31.63;30.29;101742.08;1448014;94;21147;-53
2021/08/15 10:40:45;;;;;;;3.12;2.80;;;;;;;31.63;30.58;101738.91;1502617;93;21076;-49
2021/08/15 10:43:27;;;;;;;4.20;3.58;;;;;;;31.64;30.61;101732.52;1527747;92;21785;-51
2021/08/15 10:46:22;;;;;;;3.70;2.98;;;;;;;31.67;30.48;101732.23;1530359;93;21594;-49
2021/08/15 10:48:58;;;;;;;3.70;3.12;;;;;;;31.70;30.37;101733.77;1517196;93;21149;-49
2021/08/15 10:51:49;;;;;;;5.65;3.22;;;;;;;31.74;29.84;101732.47;1526363;92;21069;-49
2021/08/15 10:54:33;;;;;;;3.95;3.40;;;;;;;31.75;30.20;101728.31;1545397;88;21059;-50
2021/08/15 10:57:04;;;;;;;9.63;8.65;;;;;;;31.76;30.01;101728.65;1614029;87;21196;-49
2021/08/15 10:59:43;;;;;;;4.42;3.87;;;;;;;31.75;30.61;101724.28;1622592;87;21104;-49
2021/08/15 11:02:13;;;;;;;7.40;4.60;;;;;;;31.75;30.49;101727.45;1614321;87;21085;-49
2021/08/15 11:04:42;;;;;;;6.97;3.85;;;;;;;31.74;30.46;101725.25;1604903;88;21073;-51
2021/08/15 11:07:09;;;;;;;6.42;4.00;;;;;;;31.74;30.71;101725.25;1582911;88;21599;-48
2021/08/15 11:09:56;;;;;;;4.28;3.40;;;;;;;31.76;31.13;101723.27;1579054;90;21065;-51
2021/08/15 11:12:25;;;;;;;12.80;5.75;;;;;;;31.76;30.89;101723.27;1575883;90;21107;-49
2021/08/15 11:15:04;;;;;;;10.55;4.17;;;;;;;31.74;31.20;101718.53;1583283;89;21037;-49
2021/08/15 11:17:34;;;;;;;3.55;3.25;;;;;;;31.74;31.99;101722.56;1583198;91;21068;-48
2021/08/15 11:20:33;;;;;;;8.28;3.27;;;;;;;31.73;31.43;101715.50;1580763;91;21608;-49
2021/08/15 11:23:15;;;;;;;4.85;3.45;;;;;;;31.74;30.75;101713.14;1624579;85;21135;-51
2021/08/15 11:25:42;;;;;;;4.15;3.15;;;;;;;31.73;31.18;101711.47;1671136;84;21047;-50
2021/08/15 11:28:09;;;;;;;4.20;3.45;;;;;;;31.74;30.96;101711.80;1668473;84;21501;-51
2021/08/15 11:30:36;;;;;;;5.90;5.28;;;;;;;31.73;31.08;101711.95;1662764;85;21013;-49
2021/08/15 11:33:07;;;;;;;4.20;3.80;;;;;;;31.68;31.13;101702.97;1662985;85;21124;-54